createdAt,value
2024-01-03T00:00:39.537Z,100
2024-01-03T00:15:39.596Z,100
2024-01-03T00:30:40.111Z,100
2024-01-03T00:45:41.129Z,100
2024-01-03T01:00:42.007Z,100
2024-01-03T01:15:42.791Z,100
2024-01-03T01:30:43.396Z,100
2024-01-03T01:45:43.962Z,100
2024-01-03T02:00:45.270Z,100
2024-01-03T02:15:45.566Z,100
2024-01-03T02:30:47.004Z,100
2024-01-03T02:45:46.865Z,100
2024-01-03T03:00:48.936Z,100
2024-01-03T03:15:47.640Z,100
2024-01-03T03:30:48.453Z,100
2024-01-03T03:45:49.474Z,100
2024-01-03T04:00:50.603Z,100
2024-01-03T04:15:50.795Z,100
2024-01-03T04:30:53.134Z,100
2024-01-03T04:45:54.865Z,100
2024-01-03T05:00:53.495Z,100
2024-01-03T05:15:53.768Z,100
2024-01-03T05:30:54.673Z,100
2024-01-03T05:45:55.060Z,100
2024-01-03T06:00:56.570Z,100
2024-01-03T06:15:56.823Z,100
2024-01-03T06:30:58.867Z,100
2024-01-03T06:45:58.680Z,100
2024-01-03T07:00:59.613Z,100
2024-01-03T07:16:52.557Z,100
2024-01-03T07:31:52.730Z,100
2024-01-03T07:46:53.129Z,100
2024-01-03T08:01:53.996Z,100
2024-01-03T08:16:54.659Z,100
2024-01-03T08:46:56.179Z,100
2024-01-03T09:01:56.325Z,100
2024-01-03T09:16:58.070Z,100
2024-01-03T09:31:59.325Z,100
2024-01-03T09:46:58.510Z,100
2024-01-03T10:01:59.091Z,100
2024-01-03T10:17:00.147Z,100
2024-01-03T10:32:03.102Z,100
2024-01-03T10:47:01.163Z,100
2024-01-03T11:02:04.081Z,100
2024-01-03T11:17:04.466Z,100
2024-01-03T11:32:02.897Z,100
2024-01-03T11:47:03.628Z,100
2024-01-03T12:02:04.583Z,100
2024-01-03T12:17:07.637Z,100
2024-01-03T12:32:08.454Z,94.1
2024-01-03T12:47:07.029Z,98.8
2024-01-03T13:02:07.182Z,73.2
2024-01-03T13:17:07.056Z,100
2024-01-03T13:32:08.784Z,100
2024-01-03T13:47:08.887Z,86.1
2024-01-03T14:02:09.436Z,81.6
2024-01-03T14:17:10.498Z,72.1
2024-01-03T14:32:14.651Z,67.4
2024-01-03T14:47:11.612Z,83.1
2024-01-03T15:02:12.560Z,86
2024-01-03T15:17:13.812Z,84.1
2024-01-03T15:32:14.303Z,100
2024-01-03T15:47:14.051Z,100
2024-01-03T16:02:18.080Z,100
2024-01-03T16:17:15.489Z,100
2024-01-03T16:32:16.780Z,100
2024-01-03T16:47:17.390Z,100
2024-01-03T17:02:17.598Z,100
2024-01-03T17:17:19.500Z,100
2024-01-03T17:32:21.291Z,100
2024-01-03T17:47:23.575Z,100
2024-01-03T18:02:21.141Z,100
2024-01-03T18:17:21.575Z,100
2024-01-03T18:32:22.088Z,100
2024-01-03T18:47:28.304Z,96.5
2024-01-03T19:02:24.832Z,96.5
2024-01-03T19:17:31.331Z,85.4
2024-01-03T19:32:25.146Z,100
2024-01-03T19:47:26.200Z,100
2024-01-03T20:02:26.869Z,100
2024-01-03T20:17:29.088Z,100
2024-01-03T20:32:27.840Z,100
2024-01-03T20:47:29.778Z,100
2024-01-03T21:02:29.065Z,100
2024-01-03T21:17:34.300Z,100
2024-01-03T21:32:30.397Z,100
2024-01-03T21:47:32.187Z,100
2024-01-03T22:02:59.017Z,100
2024-01-03T22:17:33.764Z,100
2024-01-03T22:32:32.788Z,100
2024-01-03T22:47:34.003Z,100
2024-01-03T23:00:40.049Z,100
2024-01-03T23:15:37.122Z,100
2024-01-03T23:30:39.583Z,100
2024-01-03T23:45:39.103Z,100
